Time;durP1;ratioP1;P1;durP2;ratioP2;P2;SDS_P1;SDS_P2;PMS_P1;PMS_P2;Temp;Humidity;BMP_temperature;BMP_pressure;BME280_temperature;BME280_humidity;BME280_pressure;Samples;Min_cycle;Max_cycle;Signal;HPM_P1;HPM_P2
2024/04/07 00:02:06;;;;;;;;;;;14.20;78.80;;;;;;4995772;28;19925;-70
2024/04/07 00:04:39;;;;;;;;;;;14.20;78.80;;;;;;4996589;28;20524;-69
2024/04/07 00:07:12;;;;;;;;;;;14.30;78.80;;;;;;4994346;28;19925;-71
2024/04/07 00:09:50;;;;;;;;;;;14.30;78.70;;;;;;4989585;28;19929;-72
2024/04/07 00:12:24;;;;;;;;;;;14.30;78.60;;;;;;4994888;28;19930;-71
2024/04/07 00:14:56;;;;;;;;;;;14.40;78.40;;;;;;4997725;28;20001;-72
2024/04/07 00:17:30;;;;;;;;;;;14.40;78.40;;;;;;4999795;28;19934;-69
2024/04/07 00:20:11;;;;;;;;;;;14.40;78.40;;;;;;4998341;28;19933;-71
2024/04/07 00:22:45;;;;;;;;;;;14.30;78.40;;;;;;4999302;28;19925;-71
2024/04/07 00:25:17;;;;;;;;;;;14.30;78.60;;;;;;4999588;28;20384;-70
2024/04/07 00:27:50;;;;;;;;;;;14.30;78.60;;;;;;4997449;28;19968;-71
2024/04/07 00:30:22;;;;;;;;;;;14.30;78.60;;;;;;4994804;28;19929;-70
2024/04/07 00:32:56;;;;;;;;;;;14.20;78.80;;;;;;5007194;28;20199;-71
2024/04/07 00:35:29;;;;;;;;;;;14.20;78.80;;;;;;4995603;28;19926;-61
2024/04/07 00:38:02;;;;;;;;;;;14.20;79.10;;;;;;4998623;28;19989;-60
2024/04/07 00:40:34;;;;;;;;;;;14.10;79.20;;;;;;4997343;28;20484;-61
2024/04/07 00:43:13;;;;;;;;;;;14.10;79.20;;;;;;5000252;28;19933;-60
2024/04/07 00:45:46;;;;;;;;;;;14.10;79.20;;;;;;4985430;28;20430;-61
2024/04/07 00:48:20;;;;;;;;;;;14.00;79.20;;;;;;4988596;28;19949;-61
2024/04/07 00:50:54;;;;;;;;;;;14.00;79.20;;;;;;5000168;28;19979;-61
2024/04/07 00:53:27;;;;;;;;;;;14.00;79.30;;;;;;4997968;28;19945;-62
2024/04/07 00:55:59;;;;;;;;;;;14.00;79.30;;;;;;4997221;28;19926;-61
2024/04/07 00:58:33;;;;;;;;;;;13.90;79.30;;;;;;4995947;28;19945;-61
2024/04/07 01:01:06;;;;;;;;;;;13.90;79.40;;;;;;4995655;28;19959;-61
2024/04/07 01:03:34;;;;;;;;;;;13.90;79.30;;;;;;4998394;28;19992;-61
2024/04/07 01:06:08;;;;;;;;;;;13.90;79.60;;;;;;4995451;28;19930;-61
2024/04/07 01:08:41;;;;;;;;;;;13.80;79.40;;;;;;4995910;28;19929;-61
2024/04/07 01:11:13;;;;;;;;;;;13.80;79.30;;;;;;4992865;28;20327;-60
2024/04/07 01:13:48;;;;;;;;;;;13.80;79.30;;;;;;4998153;28;19930;-61
2024/04/07 01:16:26;;;;;;;;;;;13.80;79.30;;;;;;4996725;28;19972;-60
2024/04/07 01:19:01;;;;;;;;;;;13.70;79.40;;;;;;4999321;28;19940;-60
2024/04/07 01:21:34;;;;;;;;;;;13.80;79.40;;;;;;4992990;28;19977;-62
2024/04/07 01:24:08;;;;;;;;;;;13.70;79.30;;;;;;5000806;28;20389;-60
2024/04/07 01:26:41;;;;;;;;;;;13.70;79.40;;;;;;4997220;28;19961;-60
2024/04/07 01:29:14;;;;;;;;;;;13.60;79.60;;;;;;4999397;28;19940;-61
2024/04/07 01:31:46;;;;;;;;;;;13.60;79.70;;;;;;4998536;28;20399;-61
2024/04/07 01:34:19;;;;;;;;;;;13.60;79.90;;;;;;5000458;28;20017;-60
2024/04/07 01:36:51;;;;;;;;;;;13.50;79.80;;;;;;4999205;28;19933;-60
2024/04/07 01:39:25;;;;;;;;;;;13.60;79.90;;;;;;4995621;28;19940;-60
2024/04/07 01:41:58;;;;;;;;;;;13.50;79.80;;;;;;4994969;28;20034;-60
2024/04/07 01:44:31;;;;;;;;;;;13.40;79.90;;;;;;4994807;28;20441;-65
2024/04/07 01:47:03;;;;;;;;;;;13.40;79.80;;;;;;4994717;28;20399;-65
2024/04/07 01:49:36;;;;;;;;;;;13.40;80.00;;;;;;4997468;28;19925;-64
2024/04/07 01:52:08;;;;;;;;;;;13.40;79.90;;;;;;4997175;28;19940;-65
2024/04/07 01:54:43;;;;;;;;;;;13.30;80.00;;;;;;4993984;28;19937;-63
2024/04/07 01:57:16;;;;;;;;;;;13.30;80.10;;;;;;5001065;28;19988;-63
2024/04/07 01:59:49;;;;;;;;;;;13.30;80.10;;;;;;5010284;28;19929;-65
2024/04/07 02:02:21;;;;;;;;;;;13.20;80.20;;;;;;4998116;28;19926;-64
2024/04/07 02:04:55;;;;;;;;;;;13.20;80.30;;;;;;4998541;28;19980;-66
2024/04/07 02:07:27;;;;;;;;;;;13.20;80.40;;;;;;4997298;28;20016;-65
2024/04/07 02:10:02;;;;;;;;;;;13.10;80.40;;;;;;4999599;28;20064;-63
2024/04/07 02:12:41;;;;;;;;;;;13.10;80.30;;;;;;4996187;28;19930;-63
2024/04/07 02:15:15;;;;;;;;;;;13.10;80.30;;;;;;4996185;28;19934;-66
2024/04/07 02:17:48;;;;;;;;;;;13.10;80.30;;;;;;4996000;28;19944;-65
2024/04/07 02:20:27;;;;;;;;;;;13.10;80.30;;;;;;4996804;28;19937;-64
2024/04/07 02:23:00;;;;;;;;;;;13.00;80.30;;;;;;4998008;28;19929;-65
2024/04/07 02:25:33;;;;;;;;;;;13.00;80.30;;;;;;4997573;28;19929;-65
2024/04/07 02:28:07;;;;;;;;;;;12.90;80.60;;;;;;4996449;28;19932;-65
2024/04/07 02:30:40;;;;;;;;;;;12.90;80.60;;;;;;4995806;28;19926;-63
2024/04/07 02:33:13;;;;;;;;;;;12.80;80.70;;;;;;4997713;28;19929;-64
2024/04/07 02:35:45;;;;;;;;;;;12.80;80.50;;;;;;4993820;28;19926;-65
2024/04/07 02:38:18;;;;;;;;;;;12.80;80.70;;;;;;4999505;28;19929;-65
2024/04/07 02:40:51;;;;;;;;;;;12.70;80.80;;;;;;4998439;28;19937;-65
2024/04/07 02:43:25;;;;;;;;;;;12.70;80.70;;;;;;4997153;28;19940;-64
2024/04/07 02:48:49;;;;;;;;;;;12.70;80.80;;;;;;4997167;28;19926;-64
2024/04/07 02:51:15;;;;;;;;;;;12.70;80.70;;;;;;4998587;28;20458;-65
2024/04/07 02:53:49;;;;;;;;;;;12.70;80.70;;;;;;4997198;28;19925;-74
2024/04/07 02:56:23;;;;;;;;;;;12.70;80.70;;;;;;4996713;28;20008;-75
2024/04/07 02:58:49;;;;;;;;;;;12.70;80.70;;;;;;4995646;28;19969;-75
2024/04/07 03:26:47;;;;;;;;;;;12.60;81.40;;;;;;4992838;28;19984;-74
2024/04/07 03:29:19;;;;;;;;;;;12.60;81.60;;;;;;4998839;28;19989;-75
2024/04/07 03:31:58;;;;;;;;;;;12.50;81.70;;;;;;4997430;28;20332;-75
2024/04/07 03:34:31;;;;;;;;;;;12.50;81.80;;;;;;4995343;28;19930;-74
2024/04/07 03:37:04;;;;;;;;;;;12.50;81.90;;;;;;4997796;28;19925;-74
2024/04/07 03:39:38;;;;;;;;;;;12.40;81.90;;;;;;4991600;28;20024;-75
2024/04/07 03:42:12;;;;;;;;;;;12.50;81.90;;;;;;4995306;28;20498;-74
2024/04/07 03:44:47;;;;;;;;;;;12.40;81.90;;;;;;4996212;28;19926;-74
2024/04/07 03:47:20;;;;;;;;;;;12.40;82.00;;;;;;4996846;28;20376;-75
2024/04/07 03:49:53;;;;;;;;;;;12.40;82.00;;;;;;4993498;28;20000;-75
2024/04/07 03:52:25;;;;;;;;;;;12.50;81.90;;;;;;4992656;28;19981;-74
2024/04/07 03:55:07;;;;;;;;;;;12.40;82.10;;;;;;4993535;28;20023;-74
2024/04/07 03:57:40;;;;;;;;;;;12.40;82.10;;;;;;4989800;28;19995;-74
2024/04/07 04:00:14;;;;;;;;;;;12.40;82.10;;;;;;4990330;28;19972;-74
2024/04/07 04:02:50;;;;;;;;;;;12.40;82.10;;;;;;4988162;28;20423;-75
2024/04/07 04:05:24;;;;;;;;;;;12.40;82.00;;;;;;4994642;28;19953;-63
2024/04/07 04:07:56;;;;;;;;;;;12.40;81.90;;;;;;4993745;28;19929;-62
2024/04/07 04:10:29;;;;;;;;;;;12.40;82.00;;;;;;4991933;28;20369;-62
2024/04/07 04:13:04;;;;;;;;;;;12.40;82.10;;;;;;4995444;28;19926;-62
2024/04/07 04:15:36;;;;;;;;;;;12.30;82.10;;;;;;4995755;28;19933;-62
2024/04/07 04:18:09;;;;;;;;;;;12.30;82.10;;;;;;4991740;28;19929;-63
2024/04/07 04:20:41;;;;;;;;;;;12.30;82.10;;;;;;4991758;28;19963;-63
2024/04/07 04:23:08;;;;;;;;;;;12.30;82.00;;;;;;4995279;28;19979;-63
2024/04/07 04:25:41;;;;;;;;;;;12.30;82.10;;;;;;4995657;28;20483;-62
2024/04/07 04:28:15;;;;;;;;;;;12.30;82.20;;;;;;4994343;28;19930;-63
2024/04/07 04:30:52;;;;;;;;;;;12.20;82.20;;;;;;4996236;28;20039;-63
2024/04/07 04:33:32;;;;;;;;;;;12.20;82.20;;;;;;4995919;28;19925;-61
2024/04/07 04:36:11;;;;;;;;;;;12.20;82.30;;;;;;4994020;28;19996;-63
2024/04/07 04:38:44;;;;;;;;;;;12.20;82.30;;;;;;4995044;28;19933;-64
2024/04/07 04:41:10;;;;;;;;;;;12.20;82.40;;;;;;4994304;28;20029;-63
2024/04/07 04:43:44;;;;;;;;;;;12.20;82.40;;;;;;4996644;28;19929;-62
2024/04/07 04:46:17;;;;;;;;;;;12.20;82.30;;;;;;4987384;28;20000;-61
2024/04/07 04:48:50;;;;;;;;;;;12.20;82.30;;;;;;4994912;28;20015;-63
2024/04/07 04:51:17;;;;;;;;;;;12.20;82.30;;;;;;4998879;28;19932;-62
2024/04/07 04:53:50;;;;;;;;;;;12.20;82.40;;;;;;4994807;28;19926;-62
2024/04/07 04:56:22;;;;;;;;;;;12.20;82.40;;;;;;4992678;28;19936;-62
2024/04/07 04:58:57;;;;;;;;;;;12.10;82.50;;;;;;4997552;28;20332;-62
2024/04/07 05:01:30;;;;;;;;;;;12.10;82.50;;;;;;4985321;28;20024;-61
2024/04/07 05:04:04;;;;;;;;;;;12.10;82.70;;;;;;5000600;28;20076;-63
2024/04/07 05:06:36;;;;;;;;;;;12.10;82.60;;;;;;4995663;28;19965;-62
2024/04/07 05:09:09;;;;;;;;;;;12.10;82.60;;;;;;4999592;28;19926;-62
2024/04/07 05:11:41;;;;;;;;;;;12.10;82.50;;;;;;4997563;28;20379;-63
2024/04/07 05:14:15;;;;;;;;;;;12.10;82.50;;;;;;4996165;28;19930;-61
2024/04/07 05:16:49;;;;;;;;;;;12.20;82.50;;;;;;4994362;28;20278;-60
2024/04/07 05:19:22;;;;;;;;;;;12.20;82.50;;;;;;4999386;28;19957;-62
2024/04/07 05:21:54;;;;;;;;;;;12.20;82.50;;;;;;4999003;28;19969;-61
2024/04/07 05:24:34;;;;;;;;;;;12.10;82.70;;;;;;4999241;28;19937;-61
2024/04/07 05:27:07;;;;;;;;;;;12.10;82.90;;;;;;4999007;28;19929;-61
2024/04/07 05:29:41;;;;;;;;;;;12.10;82.90;;;;;;4998884;28;19930;-61
2024/04/07 05:32:14;;;;;;;;;;;12.10;82.90;;;;;;4997349;28;25135;-61
2024/04/07 05:34:41;;;;;;;;;;;12.10;82.80;;;;;;4995173;28;22060;-61
2024/04/07 05:37:14;;;;;;;;;;;12.10;82.90;;;;;;4998526;28;20707;-61
2024/04/07 05:39:42;;;;;;;;;;;12.20;83.00;;;;;;4996938;28;19966;-61
2024/04/07 05:42:14;;;;;;;;;;;12.20;82.90;;;;;;4998717;28;19945;-62
2024/04/07 05:44:48;;;;;;;;;;;12.20;82.90;;;;;;4996822;28;19930;-61
2024/04/07 05:47:22;;;;;;;;;;;12.20;83.00;;;;;;4997831;28;19936;-61
2024/04/07 05:49:55;;;;;;;;;;;12.20;83.10;;;;;;4997710;28;19937;-60
2024/04/07 05:52:21;;;;;;;;;;;12.20;83.20;;;;;;4997731;28;19929;-60
2024/04/07 05:54:54;;;;;;;;;;;12.20;83.10;;;;;;4997626;28;19926;-61
2024/04/07 05:57:26;;;;;;;;;;;12.30;82.90;;;;;;4996060;28;19979;-61
2024/04/07 06:00:00;;;;;;;;;;;12.30;83.20;;;;;;4996341;28;20444;-61
2024/04/07 06:02:37;;;;;;;;;;;12.40;83.10;;;;;;4995159;28;19941;-62
2024/04/07 06:05:11;;;;;;;;;;;12.40;83.00;;;;;;4998054;28;19934;-62
2024/04/07 06:07:43;;;;;;;;;;;12.30;83.20;;;;;;4998364;28;19929;-61
2024/04/07 06:10:16;;;;;;;;;;;12.40;83.00;;;;;;4995532;28;20356;-61
2024/04/07 06:12:49;;;;;;;;;;;12.50;82.80;;;;;;4995083;28;19930;-62
2024/04/07 06:15:23;;;;;;;;;;;12.60;82.60;;;;;;4996701;28;19929;-60
2024/04/07 06:17:56;;;;;;;;;;;12.60;82.50;;;;;;4998620;28;19932;-61
2024/04/07 06:20:29;;;;;;;;;;;12.60;82.40;;;;;;4994897;28;19940;-60
2024/04/07 06:23:07;;;;;;;;;;;12.70;82.20;;;;;;4998135;28;20024;-60
2024/04/07 06:25:41;;;;;;;;;;;12.70;82.00;;;;;;4999405;28;19929;-62
2024/04/07 06:28:14;;;;;;;;;;;12.80;81.70;;;;;;4989214;28;19930;-60
2024/04/07 06:30:48;;;;;;;;;;;12.90;81.60;;;;;;4996661;28;20295;-59
2024/04/07 06:33:28;;;;;;;;;;;12.90;81.50;;;;;;4996361;28;19976;-60
2024/04/07 06:36:09;;;;;;;;;;;13.00;81.60;;;;;;4993920;28;20287;-60
2024/04/07 06:38:41;;;;;;;;;;;13.10;82.30;;;;;;4993747;28;19941;-59
2024/04/07 06:41:14;;;;;;;;;;;13.20;82.00;;;;;;4994014;28;19930;-59
2024/04/07 06:43:46;;;;;;;;;;;13.30;81.50;;;;;;4997727;28;19933;-60
2024/04/07 06:46:14;;;;;;;;;;;13.40;82.20;;;;;;4996598;28;20312;-60
2024/04/07 06:48:46;;;;;;;;;;;13.60;82.20;;;;;;4997136;28;19936;-59
2024/04/07 06:51:19;;;;;;;;;;;13.60;82.40;;;;;;4987985;28;19929;-60
2024/04/07 06:53:51;;;;;;;;;;;13.80;82.60;;;;;;4989939;28;19943;-60
2024/04/07 06:56:25;;;;;;;;;;;13.90;82.80;;;;;;4996716;28;20032;-60
2024/04/07 06:58:58;;;;;;;;;;;14.10;82.90;;;;;;4994457;28;19929;-59
2024/04/07 07:01:31;;;;;;;;;;;14.30;82.80;;;;;;4992329;28;19936;-61
2024/04/07 07:04:05;;;;;;;;;;;14.40;82.60;;;;;;4994414;28;19933;-60
2024/04/07 07:06:37;;;;;;;;;;;14.50;82.20;;;;;;4995392;28;19976;-60
2024/04/07 07:09:10;;;;;;;;;;;14.60;81.90;;;;;;4996481;28;20462;-60
2024/04/07 07:11:43;;;;;;;;;;;14.60;81.50;;;;;;4996321;28;20299;-59
2024/04/07 07:14:16;;;;;;;;;;;14.80;81.30;;;;;;4994478;28;20898;-60
2024/04/07 07:16:49;;;;;;;;;;;14.90;81.10;;;;;;4994208;28;19926;-60
2024/04/07 07:19:16;;;;;;;;;;;15.10;80.70;;;;;;4993154;28;20598;-59
2024/04/07 07:21:56;;;;;;;;;;;15.20;79.80;;;;;;4996729;28;19937;-60
2024/04/07 07:24:29;;;;;;;;;;;15.40;78.90;;;;;;4997122;28;19937;-60
2024/04/07 07:27:02;;;;;;;;;;;15.50;78.30;;;;;;4997194;28;19929;-60
2024/04/07 07:29:34;;;;;;;;;;;15.70;77.80;;;;;;4995832;28;19930;-59
2024/04/07 07:32:11;;;;;;;;;;;15.90;77.50;;;;;;4996100;28;19930;-59
2024/04/07 07:34:43;;;;;;;;;;;16.00;76.80;;;;;;4994007;28;19934;-70
2024/04/07 07:37:10;;;;;;;;;;;16.20;76.20;;;;;;4996453;28;20044;-69
2024/04/07 07:39:42;;;;;;;;;;;16.30;75.70;;;;;;4995376;28;19929;-70
2024/04/07 07:42:15;;;;;;;;;;;16.50;75.00;;;;;;4998039;28;19930;-71
2024/04/07 07:44:47;;;;;;;;;;;16.60;74.40;;;;;;4997043;28;19925;-71
2024/04/07 07:47:21;;;;;;;;;;;16.80;73.60;;;;;;4997821;28;20295;-71
2024/04/07 07:49:57;;;;;;;;;;;17.00;72.90;;;;;;4996141;28;20438;-71
2024/04/07 07:52:30;;;;;;;;;;;17.10;72.50;;;;;;4992139;28;19969;-69
2024/04/07 08:09:27;;;;;;;;;;;18.00;68.90;;;;;;4992108;28;20372;-71
2024/04/07 08:12:01;;;;;;;;;;;18.20;68.20;;;;;;4997463;28;19932;-71
2024/04/07 08:14:33;;;;;;;;;;;18.30;67.40;;;;;;4992935;28;20435;-70
2024/04/07 08:17:07;;;;;;;;;;;18.40;66.70;;;;;;4995427;28;19941;-71
2024/04/07 08:19:40;;;;;;;;;;;18.60;66.30;;;;;;4994497;28;19948;-70
2024/04/07 08:22:19;;;;;;;;;;;18.60;66.50;;;;;;4993463;28;20004;-69
2024/04/07 08:24:55;;;;;;;;;;;18.80;65.80;;;;;;4992704;28;20027;-69
2024/04/07 08:27:21;;;;;;;;;;;18.90;65.50;;;;;;4992605;28;19931;-71
2024/04/07 08:29:55;;;;;;;;;;;19.00;65.20;;;;;;4993554;28;20020;-69
2024/04/07 08:32:27;;;;;;;;;;;19.20;64.60;;;;;;4995895;28;19925;-71
2024/04/07 08:35:00;;;;;;;;;;;19.30;64.50;;;;;;4998814;28;21631;-71
2024/04/07 08:37:32;;;;;;;;;;;19.40;64.80;;;;;;4998907;28;19933;-70
2024/04/07 08:40:07;;;;;;;;;;;19.50;64.70;;;;;;4996266;28;19937;-72
2024/04/07 08:42:41;;;;;;;;;;;19.60;64.70;;;;;;4996024;28;20025;-73
2024/04/07 08:45:15;;;;;;;;;;;19.60;64.30;;;;;;5002379;28;19937;-71
2024/04/07 08:47:49;;;;;;;;;;;19.70;63.60;;;;;;4999937;28;19932;-70
2024/04/07 08:50:22;;;;;;;;;;;19.80;63.10;;;;;;5000315;28;19926;-72
2024/04/07 08:52:57;;;;;;;;;;;19.80;62.50;;;;;;5000731;28;19925;-72
2024/04/07 08:55:31;;;;;;;;;;;19.90;61.30;;;;;;5000165;28;20025;-72
2024/04/07 08:58:04;;;;;;;;;;;20.10;60.80;;;;;;5001369;28;20295;-71
2024/04/07 09:00:39;;;;;;;;;;;20.10;60.00;;;;;;4999893;28;20036;-72
2024/04/07 09:03:13;;;;;;;;;;;20.30;59.40;;;;;;5001373;28;19965;-72
2024/04/07 09:05:46;;;;;;;;;;;20.50;58.60;;;;;;5000257;28;19926;-73
2024/04/07 09:08:19;;;;;;;;;;;20.80;57.40;;;;;;4995263;28;20296;-72
2024/04/07 09:10:53;;;;;;;;;;;21.00;57.00;;;;;;5002018;28;19930;-72
2024/04/07 09:13:26;;;;;;;;;;;21.10;57.20;;;;;;5000108;28;21092;-72
2024/04/07 09:16:06;;;;;;;;;;;21.10;56.60;;;;;;4991975;28;20008;-73
2024/04/07 09:18:39;;;;;;;;;;;21.10;56.90;;;;;;4997994;28;19930;-70
2024/04/07 09:21:19;;;;;;;;;;;21.10;56.60;;;;;;4998975;28;19945;-71
2024/04/07 09:23:51;;;;;;;;;;;21.00;56.70;;;;;;4997796;28;19940;-73
2024/04/07 09:26:25;;;;;;;;;;;20.90;57.30;;;;;;5001297;28;19926;-73
2024/04/07 09:28:59;;;;;;;;;;;20.80;57.30;;;;;;5000019;28;19984;-72
2024/04/07 09:31:31;;;;;;;;;;;20.70;57.60;;;;;;4996745;28;19973;-73
2024/04/07 09:34:04;;;;;;;;;;;20.70;57.60;;;;;;4998825;28;20011;-72
2024/04/07 09:36:37;;;;;;;;;;;20.90;57.70;;;;;;4997445;28;20574;-73
2024/04/07 09:39:10;;;;;;;;;;;21.10;57.00;;;;;;4997359;28;19949;-73
2024/04/07 09:41:44;;;;;;;;;;;21.30;57.40;;;;;;4994254;28;19929;-72
2024/04/07 09:44:19;;;;;;;;;;;21.20;57.70;;;;;;4995608;28;19945;-73
2024/04/07 09:46:53;;;;;;;;;;;21.30;58.20;;;;;;4998023;28;20005;-73
2024/04/07 09:49:28;;;;;;;;;;;21.30;58.10;;;;;;4998308;28;20467;-72
2024/04/07 09:52:01;;;;;;;;;;;21.50;58.00;;;;;;4995165;28;19965;-72
2024/04/07 09:54:39;;;;;;;;;;;21.70;58.10;;;;;;4993465;28;19934;-63
2024/04/07 09:57:15;;;;;;;;;;;22.00;57.90;;;;;;4995441;28;19925;-63
2024/04/07 09:59:42;;;;;;;;;;;22.10;57.80;;;;;;4995398;28;20373;-63
2024/04/07 10:02:22;;;;;;;;;;;22.10;57.30;;;;;;4999557;28;19936;-63
2024/04/07 10:04:55;;;;;;;;;;;22.10;57.10;;;;;;5012502;28;19926;-63
2024/04/07 10:07:28;;;;;;;;;;;22.10;56.00;;;;;;4995143;28;19957;-64
2024/04/07 10:10:01;;;;;;;;;;;22.10;55.70;;;;;;4999119;28;20016;-63
2024/04/07 10:12:34;;;;;;;;;;;22.10;55.40;;;;;;4997912;28;19934;-63
2024/04/07 10:15:17;;;;;;;;;;;22.10;55.50;;;;;;4998580;28;19929;-64
2024/04/07 10:17:51;;;;;;;;;;;22.10;55.70;;;;;;4997279;28;20023;-64
2024/04/07 10:20:27;;;;;;;;;;;22.10;56.40;;;;;;4994653;28;19932;-64
2024/04/07 10:23:00;;;;;;;;;;;22.10;55.60;;;;;;4993599;28;20384;-64
2024/04/07 10:25:33;;;;;;;;;;;22.10;56.50;;;;;;4998594;28;20381;-64
2024/04/07 10:28:13;;;;;;;;;;;22.20;56.40;;;;;;4998262;28;19933;-64
2024/04/07 10:30:50;;;;;;;;;;;22.10;56.60;;;;;;4999235;28;19933;-64
2024/04/07 10:33:27;;;;;;;;;;;22.20;56.50;;;;;;4999270;28;19925;-64
2024/04/07 10:36:00;;;;;;;;;;;22.10;56.40;;;;;;4998239;28;20384;-64
2024/04/07 10:38:42;;;;;;;;;;;22.20;56.00;;;;;;4999386;28;20015;-64
2024/04/07 10:41:18;;;;;;;;;;;22.40;55.80;;;;;;4994903;28;19941;-64
2024/04/07 10:43:52;;;;;;;;;;;22.50;55.70;;;;;;4998372;28;19930;-64
2024/04/07 10:46:25;;;;;;;;;;;22.60;56.00;;;;;;4999290;28;19926;-62
2024/04/07 10:48:57;;;;;;;;;;;22.70;56.00;;;;;;5000004;28;20403;-63
2024/04/07 10:51:31;;;;;;;;;;;22.90;56.90;;;;;;4997623;28;20372;-64
2024/04/07 10:54:05;;;;;;;;;;;22.90;56.20;;;;;;4997240;28;19974;-64
2024/04/07 10:56:38;;;;;;;;;;;23.00;55.80;;;;;;4994544;28;19965;-63
2024/04/07 10:59:13;;;;;;;;;;;23.00;54.70;;;;;;4995563;28;19949;-64
2024/04/07 11:01:46;;;;;;;;;;;23.10;54.50;;;;;;4997708;28;19932;-64
2024/04/07 11:04:18;;;;;;;;;;;23.10;54.50;;;;;;4997293;28;20516;-65
2024/04/07 11:06:51;;;;;;;;;;;23.10;54.10;;;;;;4998887;28;19934;-66
2024/04/07 11:09:23;;;;;;;;;;;23.30;55.10;;;;;;4992604;28;20004;-65
2024/04/07 11:11:58;;;;;;;;;;;23.30;55.70;;;;;;4998276;28;20009;-65
2024/04/07 11:14:32;;;;;;;;;;;23.30;55.50;;;;;;4994194;28;19934;-65
2024/04/07 11:17:06;;;;;;;;;;;23.30;55.00;;;;;;4995514;28;20024;-66
2024/04/07 11:19:38;;;;;;;;;;;23.30;55.40;;;;;;4995233;28;19933;-67
2024/04/07 11:22:11;;;;;;;;;;;23.20;55.20;;;;;;4996020;28;19929;-64
2024/04/07 11:24:50;;;;;;;;;;;23.20;54.80;;;;;;4992219;28;20380;-64
2024/04/07 11:27:24;;;;;;;;;;;23.30;54.70;;;;;;4996202;28;19930;-64
2024/04/07 11:29:59;;;;;;;;;;;23.20;55.60;;;;;;4992907;28;20017;-65
2024/04/07 11:32:37;;;;;;;;;;;23.10;54.50;;;;;;4993452;28;19972;-65
2024/04/07 11:35:09;;;;;;;;;;;23.10;53.80;;;;;;4995148;28;19925;-66
2024/04/07 11:37:44;;;;;;;;;;;23.20;53.40;;;;;;4993703;28;19938;-64
2024/04/07 11:40:16;;;;;;;;;;;23.30;52.40;;;;;;4992100;28;19926;-65
2024/04/07 11:42:50;;;;;;;;;;;23.40;53.50;;;;;;4995034;28;19925;-67
2024/04/07 11:45:24;;;;;;;;;;;23.30;54.90;;;;;;4989459;28;19934;-65
2024/04/07 11:48:04;;;;;;;;;;;23.40;55.20;;;;;;4995239;28;19983;-65
2024/04/07 11:50:36;;;;;;;;;;;23.40;55.90;;;;;;4993899;28;19930;-66
2024/04/07 11:53:09;;;;;;;;;;;23.40;56.40;;;;;;4994349;28;19980;-64
2024/04/07 11:55:41;;;;;;;;;;;23.40;56.00;;;;;;4991511;28;19956;-65
2024/04/07 11:58:14;;;;;;;;;;;23.50;55.30;;;;;;4997441;28;19930;-65
2024/04/07 12:00:48;;;;;;;;;;;23.50;55.70;;;;;;4997227;28;19929;-66
2024/04/07 12:03:21;;;;;;;;;;;23.50;55.80;;;;;;4998419;28;19944;-66
2024/04/07 12:05:53;;;;;;;;;;;23.50;55.80;;;;;;4998536;28;19930;-66
2024/04/07 12:08:20;;;;;;;;;;;23.50;56.00;;;;;;4986620;28;19930;-66
2024/04/07 12:10:52;;;;;;;;;;;23.50;55.80;;;;;;4996079;28;19933;-64
2024/04/07 12:13:25;;;;;;;;;;;23.50;55.20;;;;;;4997068;28;19934;-75
2024/04/07 12:15:58;;;;;;;;;;;23.50;56.40;;;;;;4996881;28;19926;-73
2024/04/07 12:18:25;;;;;;;;;;;23.50;56.00;;;;;;4995924;28;20004;-75
2024/04/07 12:20:57;;;;;;;;;;;23.50;55.80;;;;;;4998345;28;19929;-73
2024/04/07 12:23:30;;;;;;;;;;;23.60;56.60;;;;;;4997356;28;19929;-73
2024/04/07 12:26:02;;;;;;;;;;;23.50;56.20;;;;;;4992742;28;20063;-72
2024/04/07 12:28:36;;;;;;;;;;;23.50;57.00;;;;;;4997679;28;20487;-73
2024/04/07 12:31:09;;;;;;;;;;;23.50;55.60;;;;;;4998835;28;19978;-73
2024/04/07 12:33:45;;;;;;;;;;;23.50;54.90;;;;;;4998883;28;19929;-72
2024/04/07 12:36:17;;;;;;;;;;;23.50;55.30;;;;;;4997740;28;19930;-72
2024/04/07 12:38:50;;;;;;;;;;;23.50;56.20;;;;;;4998411;28;19933;-71
2024/04/07 12:41:22;;;;;;;;;;;23.50;56.00;;;;;;4998004;28;20377;-74
2024/04/07 12:44:02;;;;;;;;;;;23.60;55.40;;;;;;4995232;28;19929;-72
2024/04/07 12:46:36;;;;;;;;;;;23.60;54.90;;;;;;4982003;28;19932;-72
2024/04/07 12:49:10;;;;;;;;;;;23.60;56.60;;;;;;4995318;28;19936;-73
2024/04/07 12:51:43;;;;;;;;;;;23.60;56.70;;;;;;4994996;28;19925;-76
2024/04/07 12:54:10;;;;;;;;;;;23.60;56.40;;;;;;4994679;28;20305;-75
2024/04/07 12:56:42;;;;;;;;;;;23.60;55.60;;;;;;4996665;28;19930;-73
2024/04/07 12:59:23;;;;;;;;;;;23.60;56.70;;;;;;4995332;28;21470;-74
2024/04/07 13:01:58;;;;;;;;;;;23.60;56.40;;;;;;4997695;28;19925;-74
2024/04/07 13:04:31;;;;;;;;;;;23.60;55.80;;;;;;4998059;28;19930;-72
2024/04/07 13:07:03;;;;;;;;;;;23.60;55.60;;;;;;5003703;28;19941;-74
2024/04/07 13:09:36;;;;;;;;;;;23.60;56.10;;;;;;4994431;28;19925;-73
2024/04/07 13:12:08;;;;;;;;;;;23.60;57.20;;;;;;4997159;28;20434;-75
2024/04/07 13:14:41;;;;;;;;;;;23.50;56.00;;;;;;5001144;28;19925;-73
2024/04/07 13:17:09;;;;;;;;;;;23.50;56.50;;;;;;4997969;28;20320;-72
2024/04/07 13:19:42;;;;;;;;;;;23.60;55.80;;;;;;4999809;28;20292;-75
2024/04/07 13:22:14;;;;;;;;;;;23.60;56.80;;;;;;5000166;28;19936;-74
2024/04/07 13:24:55;;;;;;;;;;;23.60;57.20;;;;;;5000511;28;20021;-65
2024/04/07 13:27:27;;;;;;;;;;;23.50;55.80;;;;;;4998459;28;19929;-67
2024/04/07 13:30:00;;;;;;;;;;;23.60;54.30;;;;;;5000870;28;19926;-65
2024/04/07 13:32:34;;;;;;;;;;;23.60;55.20;;;;;;4999874;28;19930;-66
2024/04/07 13:35:00;;;;;;;;;;;23.60;55.90;;;;;;5000449;28;19992;-65
2024/04/07 13:37:32;;;;;;;;;;;23.60;56.50;;;;;;5001456;28;19926;-64
2024/04/07 13:40:06;;;;;;;;;;;23.60;56.90;;;;;;5000001;28;19925;-66
2024/04/07 13:42:39;;;;;;;;;;;23.60;55.30;;;;;;4997414;28;19980;-65
2024/04/07 13:45:12;;;;;;;;;;;23.60;56.00;;;;;;5000398;28;19929;-65
2024/04/07 13:47:46;;;;;;;;;;;23.60;57.00;;;;;;5000533;28;20016;-66
2024/04/07 13:50:19;;;;;;;;;;;23.60;55.90;;;;;;4999825;28;19988;-66
2024/04/07 13:52:51;;;;;;;;;;;23.60;55.90;;;;;;5000620;28;19937;-67
2024/04/07 13:55:31;;;;;;;;;;;23.60;56.90;;;;;;4997038;28;19930;-67
2024/04/07 13:58:03;;;;;;;;;;;23.60;57.70;;;;;;4996222;28;19979;-64
2024/04/07 14:00:37;;;;;;;;;;;23.60;56.80;;;;;;4997987;28;19933;-67
2024/04/07 14:03:11;;;;;;;;;;;23.60;55.90;;;;;;4999917;28;19977;-66
2024/04/07 14:05:46;;;;;;;;;;;23.60;55.40;;;;;;4998967;28;19948;-64
2024/04/07 14:08:25;;;;;;;;;;;23.60;56.40;;;;;;4998915;28;19929;-66
2024/04/07 14:10:58;;;;;;;;;;;23.60;56.50;;;;;;4998466;28;20021;-66
2024/04/07 14:13:24;;;;;;;;;;;23.60;57.10;;;;;;4999608;28;19951;-65
2024/04/07 14:15:57;;;;;;;;;;;23.50;57.30;;;;;;4996640;28;20464;-65
2024/04/07 14:18:31;;;;;;;;;;;23.50;56.90;;;;;;4998094;28;21418;-66
2024/04/07 14:20:57;;;;;;;;;;;23.50;56.80;;;;;;4999701;28;20518;-66
2024/04/07 14:23:29;;;;;;;;;;;23.50;56.50;;;;;;4998844;28;19926;-64
2024/04/07 14:26:02;;;;;;;;;;;23.50;57.60;;;;;;4997215;28;19972;-66
2024/04/07 14:28:28;;;;;;;;;;;23.40;57.20;;;;;;4999838;28;20389;-65
2024/04/07 14:31:02;;;;;;;;;;;23.40;57.00;;;;;;4999522;28;20420;-66
2024/04/07 14:33:36;;;;;;;;;;;23.40;57.20;;;;;;4998041;28;19926;-66
2024/04/07 14:36:09;;;;;;;;;;;23.40;57.20;;;;;;5000099;28;19925;-65
2024/04/07 14:38:41;;;;;;;;;;;23.40;57.60;;;;;;4999619;28;19933;-66
2024/04/07 14:41:14;;;;;;;;;;;23.30;56.70;;;;;;4997794;28;19926;-65
2024/04/07 14:43:40;;;;;;;;;;;23.30;57.20;;;;;;4994894;28;19934;-64
2024/04/07 14:46:13;;;;;;;;;;;23.30;57.80;;;;;;4995978;28;19929;-66
2024/04/07 14:48:48;;;;;;;;;;;23.30;57.10;;;;;;4990140;28;19930;-66
2024/04/07 14:51:21;;;;;;;;;;;23.30;56.80;;;;;;4998025;28;20017;-66
2024/04/07 14:53:53;;;;;;;;;;;23.30;57.00;;;;;;4995823;28;19926;-65
2024/04/07 14:56:26;;;;;;;;;;;23.30;57.10;;;;;;4998248;28;19933;-66
2024/04/07 14:58:58;;;;;;;;;;;23.40;57.80;;;;;;4993005;28;19925;-65
2024/04/07 15:01:31;;;;;;;;;;;23.30;58.10;;;;;;4994606;28;19936;-66
2024/04/07 15:04:05;;;;;;;;;;;23.30;56.50;;;;;;5000912;28;20032;-65
2024/04/07 15:06:45;;;;;;;;;;;23.30;56.20;;;;;;4995493;28;19948;-66
2024/04/07 15:09:17;;;;;;;;;;;23.20;56.70;;;;;;4995083;28;19934;-67
2024/04/07 15:11:50;;;;;;;;;;;23.30;56.60;;;;;;4993191;28;19926;-65
2024/04/07 15:14:23;;;;;;;;;;;23.30;54.70;;;;;;4997857;28;19925;-65
2024/04/07 15:16:49;;;;;;;;;;;23.30;55.10;;;;;;4993555;28;19953;-65
2024/04/07 15:19:24;;;;;;;;;;;23.30;54.30;;;;;;4997846;28;19934;-65
2024/04/07 15:21:56;;;;;;;;;;;23.30;54.70;;;;;;4997677;28;19926;-65
2024/04/07 15:24:36;;;;;;;;;;;23.30;53.90;;;;;;4998253;28;19983;-64
2024/04/07 15:27:15;;;;;;;;;;;23.20;54.80;;;;;;4998982;28;19926;-67
2024/04/07 15:29:48;;;;;;;;;;;23.20;56.70;;;;;;4995806;28;19976;-65
2024/04/07 15:32:20;;;;;;;;;;;23.10;55.90;;;;;;4994017;28;19937;-65
2024/04/07 15:34:56;;;;;;;;;;;23.10;56.40;;;;;;4988868;28;20593;-66